Time;durP1;ratioP1;P1;durP2;ratioP2;P2;SDS_P1;SDS_P2;PMS_P1;PMS_P2;Temp;Humidity;BMP_temperature;BMP_pressure;BME280_temperature;BME280_humidity;BME280_pressure;Samples;Min_cycle;Max_cycle;Signal;HPM_P1;HPM_P2
2022/08/24 00:00:15;;;;;;;3.03;2.80;;;;;;;;;;5063561;28;20197;-69
2022/08/24 00:02:42;;;;;;;4.35;3.22;;;;;;;;;;5064448;28;20501;-69
2022/08/24 00:05:08;;;;;;;5.68;3.08;;;;;;;;;;5064197;28;20450;-69
2022/08/24 00:07:35;;;;;;;3.40;3.10;;;;;;;;;;5064083;28;20519;-69
2022/08/24 00:10:01;;;;;;;3.33;3.15;;;;;;;;;;5064415;28;20197;-69
2022/08/24 00:12:28;;;;;;;3.90;3.53;;;;;;;;;;5064384;28;20205;-69
2022/08/24 00:14:54;;;;;;;3.53;3.00;;;;;;;;;;5064195;28;20501;-69
2022/08/24 00:17:22;;;;;;;3.92;3.25;;;;;;;;;;5064036;28;20197;-69
2022/08/24 00:19:48;;;;;;;3.72;3.38;;;;;;;;;;5064012;28;20436;-68
2022/08/24 00:22:14;;;;;;;5.28;3.30;;;;;;;;;;5064269;28;20197;-68
2022/08/24 00:24:41;;;;;;;3.35;3.13;;;;;;;;;;5064202;28;20197;-68
2022/08/24 00:27:08;;;;;;;3.50;3.30;;;;;;;;;;5063952;28;20201;-68
2022/08/24 00:29:34;;;;;;;3.20;2.90;;;;;;;;;;5064044;28;20204;-68
2022/08/24 00:32:01;;;;;;;3.50;3.17;;;;;;;;;;5063973;28;20204;-68
2022/08/24 00:34:28;;;;;;;3.15;2.92;;;;;;;;;;5063801;28;20426;-68
2022/08/24 00:36:55;;;;;;;3.88;2.92;;;;;;;;;;5063741;28;20192;-68
2022/08/24 00:39:21;;;;;;;3.40;3.13;;;;;;;;;;5063944;28;20389;-68
2022/08/24 00:41:48;;;;;;;4.88;3.38;;;;;;;;;;5063854;28;20452;-68
2022/08/24 00:44:16;;;;;;;8.23;3.05;;;;;;;;;;5063659;28;20394;-68
2022/08/24 00:46:44;;;;;;;3.15;2.88;;;;;;;;;;5063329;28;20420;-68
2022/08/24 00:49:13;;;;;;;3.88;3.42;;;;;;;;;;5063509;28;20206;-68
2022/08/24 00:51:46;;;;;;;5.70;3.08;;;;;;;;;;5063700;28;20204;-68
2022/08/24 00:54:14;;;;;;;3.95;2.95;;;;;;;;;;5063466;28;20197;-68
2022/08/24 00:56:43;;;;;;;4.55;3.05;;;;;;;;;;5063235;28;20201;-68
2022/08/24 00:59:11;;;;;;;3.60;3.15;;;;;;;;;;5063366;28;20196;-68
2022/08/24 01:01:38;;;;;;;3.35;3.15;;;;;;;;;;5063276;28;20204;-68
2022/08/24 01:04:06;;;;;;;6.03;2.75;;;;;;;;;;5063744;28;20204;-68
2022/08/24 01:06:33;;;;;;;6.75;3.28;;;;;;;;;;5062916;28;20221;-68
2022/08/24 01:09:00;;;;;;;3.20;3.00;;;;;;;;;;5063296;28;20505;-68
2022/08/24 01:11:28;;;;;;;3.20;3.00;;;;;;;;;;5062905;28;20204;-68
2022/08/24 01:13:55;;;;;;;3.35;3.15;;;;;;;;;;5062951;28;20204;-68
2022/08/24 01:19:02;;;;;;;3.92;3.58;;;;;;;;;;5062655;28;20363;-68
2022/08/24 01:21:30;;;;;;;3.20;3.00;;;;;;;;;;5063111;28;20197;-68
2022/08/24 01:23:59;;;;;;;4.05;3.50;;;;;;;;;;5062951;28;20200;-68
2022/08/24 01:26:27;;;;;;;3.63;3.33;;;;;;;;;;5062522;28;20224;-68
2022/08/24 01:28:55;;;;;;;3.75;3.45;;;;;;;;;;5063029;28;20500;-68
2022/08/24 01:31:22;;;;;;;3.47;3.28;;;;;;;;;;5062916;28;20197;-68
2022/08/24 01:33:49;;;;;;;3.80;3.53;;;;;;;;;;5062839;28;20247;-68
2022/08/24 01:36:19;;;;;;;4.68;3.20;;;;;;;;;;5062502;28;20215;-68
2022/08/24 01:38:45;;;;;;;4.00;3.58;;;;;;;;;;5061959;28;20516;-68
2022/08/24 01:41:13;;;;;;;3.53;3.22;;;;;;;;;;5062767;28;20243;-68
2022/08/24 01:43:40;;;;;;;5.35;3.72;;;;;;;;;;5062645;28;20197;-68
2022/08/24 01:46:06;;;;;;;4.03;3.53;;;;;;;;;;5062303;28;20448;-68
2022/08/24 01:48:32;;;;;;;3.17;2.97;;;;;;;;;;5062384;28;20242;-68
2022/08/24 01:50:59;;;;;;;3.20;2.83;;;;;;;;;;5062621;28;20204;-68
2022/08/24 01:53:25;;;;;;;3.67;3.38;;;;;;;;;;5062478;28;20193;-68
2022/08/24 01:55:51;;;;;;;3.60;3.28;;;;;;;;;;5062450;28;20544;-68
2022/08/24 01:58:19;;;;;;;3.80;3.50;;;;;;;;;;5062111;28;20201;-68
2022/08/24 02:00:45;;;;;;;3.75;3.55;;;;;;;;;;5062293;28;20258;-68
2022/08/24 02:03:12;;;;;;;3.33;3.13;;;;;;;;;;5062150;28;20235;-69
2022/08/24 02:05:38;;;;;;;6.85;3.65;;;;;;;;;;5062270;28;20224;-68
2022/08/24 02:08:05;;;;;;;4.25;3.40;;;;;;;;;;5062123;28;20269;-68
2022/08/24 02:10:31;;;;;;;4.85;3.55;;;;;;;;;;5062196;28;20204;-68
2022/08/24 02:12:58;;;;;;;5.72;3.60;;;;;;;;;;5062103;28;20204;-68
2022/08/24 02:15:27;;;;;;;5.63;3.75;;;;;;;;;;5062145;28;20197;-68
2022/08/24 02:17:53;;;;;;;4.82;3.50;;;;;;;;;;5061775;28;20219;-68
2022/08/24 02:20:20;;;;;;;3.72;3.40;;;;;;;;;;5062199;28;20204;-68
2022/08/24 02:22:46;;;;;;;3.92;3.63;;;;;;;;;;5061697;28;20515;-68
2022/08/24 02:25:13;;;;;;;3.38;3.22;;;;;;;;;;5062163;28;20426;-68
2022/08/24 02:27:39;;;;;;;4.25;3.28;;;;;;;;;;5061712;28;20200;-68
2022/08/24 02:30:06;;;;;;;3.75;3.35;;;;;;;;;;5061945;28;20567;-68
2022/08/24 02:32:34;;;;;;;3.80;3.60;;;;;;;;;;5061930;28;20512;-68
2022/08/24 02:35:00;;;;;;;5.40;3.72;;;;;;;;;;5062287;28;20505;-68
2022/08/24 02:37:26;;;;;;;3.83;3.58;;;;;;;;;;5061836;28;20515;-68
2022/08/24 02:39:52;;;;;;;3.45;3.25;;;;;;;;;;5062353;28;20197;-68
2022/08/24 02:42:19;;;;;;;3.88;3.67;;;;;;;;;;5061821;28;20201;-68
2022/08/24 02:44:45;;;;;;;4.55;3.30;;;;;;;;;;5061711;28;20243;-68
2022/08/24 02:47:11;;;;;;;4.05;3.42;;;;;;;;;;5061715;28;20220;-68
2022/08/24 02:49:39;;;;;;;4.10;3.40;;;;;;;;;;5061911;28;20197;-68
2022/08/24 02:52:05;;;;;;;7.07;3.67;;;;;;;;;;5061941;28;20201;-68
2022/08/24 02:54:31;;;;;;;6.40;3.65;;;;;;;;;;5061916;28;20288;-68
2022/08/24 02:56:58;;;;;;;3.88;3.25;;;;;;;;;;5061407;28;20208;-68
2022/08/24 02:59:24;;;;;;;3.97;3.67;;;;;;;;;;5061581;28;20229;-68
2022/08/24 03:01:51;;;;;;;3.38;3.08;;;;;;;;;;5061897;28;20209;-68
2022/08/24 03:04:17;;;;;;;3.78;3.22;;;;;;;;;;5061861;28;20250;-68
2022/08/24 03:06:45;;;;;;;4.05;3.33;;;;;;;;;;5061383;28;20274;-68
2022/08/24 03:09:12;;;;;;;3.72;3.53;;;;;;;;;;5061459;28;20193;-68
2022/08/24 03:11:39;;;;;;;4.63;3.30;;;;;;;;;;5061531;28;20535;-68
2022/08/24 03:14:05;;;;;;;3.67;3.47;;;;;;;;;;5061501;28;20442;-68
2022/08/24 03:16:32;;;;;;;4.75;3.90;;;;;;;;;;5061579;28;20193;-68
2022/08/24 03:18:58;;;;;;;3.83;3.63;;;;;;;;;;5061536;28;20205;-68
2022/08/24 03:21:24;;;;;;;4.15;3.88;;;;;;;;;;5061587;28;20212;-68
2022/08/24 03:23:52;;;;;;;5.22;3.50;;;;;;;;;;5061528;28;20497;-68
2022/08/24 03:26:19;;;;;;;4.35;3.83;;;;;;;;;;5061143;28;20221;-68
2022/08/24 03:28:45;;;;;;;7.60;3.80;;;;;;;;;;5061509;28;20553;-68
2022/08/24 03:31:12;;;;;;;6.40;4.07;;;;;;;;;;5061611;28;20243;-68
2022/08/24 03:33:38;;;;;;;4.68;4.22;;;;;;;;;;5061884;28;20197;-68
2022/08/24 03:36:05;;;;;;;4.47;4.15;;;;;;;;;;5064941;28;20200;-68
2022/08/24 03:38:31;;;;;;;4.80;4.00;;;;;;;;;;5064893;28;20496;-68
2022/08/24 03:40:59;;;;;;;4.65;4.25;;;;;;;;;;5064798;28;20235;-68
2022/08/24 03:46:10;;;;;;;6.65;4.10;;;;;;;;;;5064510;28;20231;-68
2022/08/24 03:48:37;;;;;;;4.53;4.13;;;;;;;;;;5064743;28;20242;-68
2022/08/24 03:51:04;;;;;;;5.53;4.28;;;;;;;;;;5064780;28;20243;-68
2022/08/24 03:53:30;;;;;;;6.65;3.65;;;;;;;;;;5064519;28;20208;-68
2022/08/24 03:55:57;;;;;;;4.20;3.95;;;;;;;;;;5064328;28;20221;-68
2022/08/24 03:58:24;;;;;;;3.83;3.53;;;;;;;;;;5064728;28;20220;-68
2022/08/24 04:00:51;;;;;;;4.90;3.70;;;;;;;;;;5064760;28;20497;-68
2022/08/24 04:03:17;;;;;;;5.28;4.05;;;;;;;;;;5064469;28;20209;-68
2022/08/24 04:05:43;;;;;;;4.35;3.97;;;;;;;;;;5064341;28;20555;-68
2022/08/24 04:08:10;;;;;;;4.32;3.95;;;;;;;;;;5064037;28;20374;-68
2022/08/24 04:10:37;;;;;;;7.63;3.92;;;;;;;;;;5064433;28;20198;-68
2022/08/24 04:13:03;;;;;;;6.07;4.18;;;;;;;;;;5064433;28;20243;-68
2022/08/24 04:15:31;;;;;;;6.13;3.97;;;;;;;;;;5064136;28;20197;-67
2022/08/24 04:17:58;;;;;;;5.28;3.78;;;;;;;;;;5064128;28;20201;-67
2022/08/24 04:20:24;;;;;;;5.60;3.83;;;;;;;;;;5064263;28;20197;-67
2022/08/24 04:22:51;;;;;;;4.47;4.00;;;;;;;;;;5064527;28;20511;-67
2022/08/24 04:25:17;;;;;;;4.20;3.80;;;;;;;;;;5064155;28;20197;-67
2022/08/24 04:27:44;;;;;;;4.85;3.50;;;;;;;;;;5063559;28;20260;-67
2022/08/24 04:30:10;;;;;;;5.20;4.40;;;;;;;;;;5064196;28;20201;-67
2022/08/24 04:32:38;;;;;;;4.30;4.00;;;;;;;;;;5063909;28;20197;-67
2022/08/24 04:35:05;;;;;;;4.25;3.85;;;;;;;;;;5063805;28;20197;-67
2022/08/24 04:37:31;;;;;;;7.75;4.35;;;;;;;;;;5063816;28;20505;-67
2022/08/24 04:39:57;;;;;;;4.07;3.88;;;;;;;;;;5063912;28;20221;-67
2022/08/24 04:42:24;;;;;;;3.55;3.35;;;;;;;;;;5063718;28;20201;-67
2022/08/24 04:44:50;;;;;;;3.90;3.70;;;;;;;;;;5063253;28;20280;-67
2022/08/24 04:47:17;;;;;;;5.00;4.00;;;;;;;;;;5063260;28;20217;-67
2022/08/24 04:49:45;;;;;;;3.85;3.65;;;;;;;;;;5063506;28;20201;-67
2022/08/24 04:52:11;;;;;;;4.00;3.70;;;;;;;;;;5063711;28;20436;-67
2022/08/24 04:54:37;;;;;;;6.80;3.70;;;;;;;;;;5063536;28;20201;-67
2022/08/24 04:57:04;;;;;;;3.47;3.28;;;;;;;;;;5063266;28;20227;-67
2022/08/24 04:59:30;;;;;;;3.60;3.40;;;;;;;;;;5063815;28;20203;-67
2022/08/24 05:01:56;;;;;;;3.70;3.42;;;;;;;;;;5063356;28;20243;-67
2022/08/24 05:04:23;;;;;;;3.85;3.55;;;;;;;;;;5063240;28;20197;-67
2022/08/24 05:06:50;;;;;;;4.50;3.60;;;;;;;;;;5063236;28;20228;-67
2022/08/24 05:09:16;;;;;;;3.45;3.25;;;;;;;;;;5063254;28;20201;-67
2022/08/24 05:11:43;;;;;;;3.58;3.28;;;;;;;;;;5063075;28;20204;-67
2022/08/24 05:14:09;;;;;;;3.47;3.28;;;;;;;;;;5062811;28;20211;-67
2022/08/24 05:16:36;;;;;;;3.70;3.40;;;;;;;;;;5062253;28;20239;-67
2022/08/24 05:19:03;;;;;;;5.40;3.33;;;;;;;;;;5062524;28;20197;-67
2022/08/24 05:21:30;;;;;;;4.47;3.97;;;;;;;;;;5062859;28;20268;-67
2022/08/24 05:23:58;;;;;;;4.07;3.78;;;;;;;;;;5062867;28;20531;-67
2022/08/24 05:26:25;;;;;;;5.22;4.03;;;;;;;;;;5062592;28;20197;-67
2022/08/24 05:28:53;;;;;;;5.13;4.28;;;;;;;;;;5062581;28;20209;-67
2022/08/24 05:31:20;;;;;;;4.45;4.07;;;;;;;;;;5062442;28;20197;-67
2022/08/24 05:33:47;;;;;;;4.82;4.40;;;;;;;;;;5062248;28;20230;-67
2022/08/24 05:36:15;;;;;;;4.97;4.43;;;;;;;;;;5062273;28;20242;-67
2022/08/24 05:38:41;;;;;;;4.25;3.95;;;;;;;;;;5062302;28;20197;-67
2022/08/24 05:41:09;;;;;;;5.07;4.18;;;;;;;;;;5062547;28;20251;-67
2022/08/24 05:43:35;;;;;;;5.32;4.38;;;;;;;;;;5062173;28;20282;-63
2022/08/24 05:46:02;;;;;;;6.53;4.78;;;;;;;;;;5062128;28;20203;-63
2022/08/24 05:48:28;;;;;;;9.13;4.25;;;;;;;;;;5061907;28;20221;-62
2022/08/24 05:50:55;;;;;;;5.40;4.78;;;;;;;;;;5061779;28;20201;-62
2022/08/24 05:53:21;;;;;;;6.30;4.80;;;;;;;;;;5061813;28;20235;-62
2022/08/24 05:55:47;;;;;;;6.75;5.40;;;;;;;;;;5061584;28;20197;-61
2022/08/24 05:58:15;;;;;;;8.30;5.15;;;;;;;;;;5060899;28;20264;-62
2022/08/24 06:00:44;;;;;;;6.40;4.47;;;;;;;;;;5047001;28;20591;-62
2022/08/24 06:03:10;;;;;;;8.48;5.70;;;;;;;;;;5048869;28;20209;-64
2022/08/24 06:05:38;;;;;;;10.27;4.55;;;;;;;;;;5054251;28;20294;-62
2022/08/24 06:08:04;;;;;;;7.45;4.88;;;;;;;;;;5040315;28;20299;-63
2022/08/24 06:10:31;;;;;;;8.20;4.22;;;;;;;;;;5034939;28;20232;-61
2022/08/24 06:12:57;;;;;;;7.13;5.20;;;;;;;;;;5039823;28;20246;-62
2022/08/24 06:15:25;;;;;;;9.02;4.80;;;;;;;;;;5052235;28;20849;-62
2022/08/24 06:17:51;;;;;;;5.97;4.93;;;;;;;;;;5052854;28;20413;-62
2022/08/24 06:20:17;;;;;;;8.02;4.18;;;;;;;;;;5053355;28;20279;-62
2022/08/24 06:22:44;;;;;;;6.07;4.50;;;;;;;;;;5036905;28;20221;-62
2022/08/24 06:27:54;;;;;;;4.57;3.85;;;;;;;;;;5050299;28;20490;-63
2022/08/24 06:30:20;;;;;;;3.47;3.05;;;;;;;;;;5053443;28;20217;-63
2022/08/24 06:32:48;;;;;;;7.07;3.92;;;;;;;;;;5051091;28;20209;-65
2022/08/24 06:35:14;;;;;;;6.47;3.78;;;;;;;;;;5053994;28;20220;-65
2022/08/24 06:37:42;;;;;;;5.20;3.50;;;;;;;;;;5042044;28;20216;-64
2022/08/24 06:40:09;;;;;;;3.97;3.78;;;;;;;;;;5033014;28;20494;-64
2022/08/24 06:42:35;;;;;;;4.88;3.67;;;;;;;;;;5048413;28;20204;-63
2022/08/24 06:45:01;;;;;;;4.25;3.08;;;;;;;;;;5053415;28;20220;-64
2022/08/24 06:47:28;;;;;;;5.10;3.20;;;;;;;;;;5052765;28;20224;-64
2022/08/24 06:49:57;;;;;;;8.75;3.45;;;;;;;;;;5053019;28;20213;-64
2022/08/24 06:52:24;;;;;;;4.43;3.40;;;;;;;;;;5053179;28;20224;-64
2022/08/24 06:54:51;;;;;;;3.75;3.38;;;;;;;;;;5044298;28;20217;-64
2022/08/24 06:57:18;;;;;;;7.60;5.32;;;;;;;;;;5035559;28;20223;-64
2022/08/24 06:59:44;;;;;;;5.28;4.90;;;;;;;;;;5033776;28;20217;-65
2022/08/24 07:02:14;;;;;;;7.30;5.70;;;;;;;;;;5041305;28;20289;-64
2022/08/24 07:04:41;;;;;;;5.72;4.10;;;;;;;;;;5034659;28;20456;-64
2022/08/24 07:07:08;;;;;;;5.18;3.42;;;;;;;;;;5033777;28;20553;-64
2022/08/24 07:09:35;;;;;;;3.47;2.88;;;;;;;;;;5037013;28;20209;-65
2022/08/24 07:12:01;;;;;;;4.90;4.22;;;;;;;;;;5042242;28;20224;-64
2022/08/24 07:14:28;;;;;;;7.00;4.43;;;;;;;;;;5053604;28;20528;-63
2022/08/24 07:16:55;;;;;;;5.68;3.97;;;;;;;;;;5037026;28;20417;-64
2022/08/24 07:19:21;;;;;;;5.80;3.58;;;;;;;;;;5037006;28;20229;-65
2022/08/24 07:21:47;;;;;;;6.85;3.90;;;;;;;;;;5036911;28;20245;-63
2022/08/24 07:24:15;;;;;;;8.20;3.90;;;;;;;;;;5033353;28;20224;-64
2022/08/24 07:26:41;;;;;;;3.95;3.65;;;;;;;;;;5042683;28;20529;-64
2022/08/24 07:29:10;;;;;;;4.35;3.70;;;;;;;;;;5044477;28;20593;-64
2022/08/24 07:31:37;;;;;;;3.70;3.40;;;;;;;;;;5041043;28;20220;-62
2022/08/24 07:34:04;;;;;;;6.15;3.40;;;;;;;;;;5044939;28;20205;-64
2022/08/24 07:36:30;;;;;;;5.25;3.13;;;;;;;;;;5034456;28;20413;-64
2022/08/24 07:38:57;;;;;;;3.75;3.35;;;;;;;;;;5049625;28;20213;-64
2022/08/24 07:41:25;;;;;;;5.90;3.22;;;;;;;;;;5039142;28;20541;-65
2022/08/24 07:43:52;;;;;;;3.47;3.17;;;;;;;;;;5031493;28;20232;-65
2022/08/24 07:46:18;;;;;;;4.65;3.35;;;;;;;;;;5040278;28;20537;-65
2022/08/24 07:48:44;;;;;;;7.15;3.90;;;;;;;;;;5034949;28;20240;-62
2022/08/24 07:51:12;;;;;;;4.85;3.65;;;;;;;;;;5045504;28;20236;-63
2022/08/24 07:53:38;;;;;;;8.45;3.58;;;;;;;;;;5038488;28;20214;-62
2022/08/24 07:56:05;;;;;;;7.35;3.80;;;;;;;;;;5036937;28;20234;-62
2022/08/24 07:58:32;;;;;;;5.97;3.22;;;;;;;;;;5048041;28;20205;-62
2022/08/24 08:00:59;;;;;;;7.82;4.80;;;;;;;;;;5048423;28;20220;-62
2022/08/24 08:03:28;;;;;;;8.35;3.45;;;;;;;;;;5055936;28;20251;-61
2022/08/24 08:05:55;;;;;;;4.13;3.00;;;;;;;;;;5057110;28;20221;-61
2022/08/24 08:08:21;;;;;;;4.50;3.20;;;;;;;;;;5055393;28;20224;-61
2022/08/24 08:10:48;;;;;;;2.92;2.70;;;;;;;;;;5035646;28;20486;-61
2022/08/24 08:13:14;;;;;;;3.95;2.95;;;;;;;;;;5040332;28;20213;-61
2022/08/24 08:15:42;;;;;;;7.22;2.88;;;;;;;;;;5053287;28;20217;-61
2022/08/24 08:18:08;;;;;;;5.97;3.47;;;;;;;;;;5055651;28;20213;-62
2022/08/24 08:20:36;;;;;;;7.72;3.28;;;;;;;;;;5035864;28;20225;-63
2022/08/24 08:25:47;;;;;;;8.38;3.58;;;;;;;;;;5048678;28;20451;-63
2022/08/24 08:28:14;;;;;;;6.10;3.05;;;;;;;;;;5053119;28;20281;-63
2022/08/24 08:30:42;;;;;;;3.75;2.40;;;;;;;;;;5040121;28;20249;-64
2022/08/24 08:33:08;;;;;;;6.07;2.83;;;;;;;;;;5035523;28;20510;-63
2022/08/24 08:35:36;;;;;;;6.97;2.83;;;;;;;;;;5036856;28;20240;-62
2022/08/24 08:38:02;;;;;;;6.70;2.78;;;;;;;;;;5035690;28;20530;-63
2022/08/24 08:40:39;;;;;;;11.25;3.15;;;;;;;;;;5035542;28;20217;-63
2022/08/24 08:43:07;;;;;;;9.45;3.00;;;;;;;;;;5036074;28;20213;-63
2022/08/24 08:45:44;;;;;;;3.90;2.45;;;;;;;;;;5035604;28;20484;-63
2022/08/24 08:48:21;;;;;;;6.07;2.88;;;;;;;;;;5039919;28;20295;-64
2022/08/24 08:50:57;;;;;;;4.43;2.70;;;;;;;;;;5052135;28;20439;-64
2022/08/24 08:53:34;;;;;;;4.88;2.20;;;;;;;;;;5055470;28;20509;-64
2022/08/24 08:56:03;;;;;;;17.33;11.90;;;;;;;;;;5044711;28;20615;-64
2022/08/24 08:58:45;;;;;;;6.35;2.20;;;;;;;;;;5038341;28;20210;-64
2022/08/24 09:01:14;;;;;;;2.42;2.13;;;;;;;;;;5040020;28;20243;-64
2022/08/24 09:04:00;;;;;;;3.45;2.50;;;;;;;;;;5051999;28;20219;-64
2022/08/24 09:06:50;;;;;;;4.65;2.40;;;;;;;;;;5035112;28;20229;-65
2022/08/24 09:09:23;;;;;;;5.13;2.15;;;;;;;;;;5041696;28;20229;-64
2022/08/24 09:11:54;;;;;;;10.60;4.45;;;;;;;;;;5053969;28;20407;-65
2022/08/24 09:14:35;;;;;;;2.05;1.95;;;;;;;;;;5052489;28;20448;-65
2022/08/24 09:17:08;;;;;;;7.13;2.28;;;;;;;;;;5048678;28;20236;-65
2022/08/24 09:19:44;;;;;;;3.65;2.00;;;;;;;;;;5035019;28;20259;-65
2022/08/24 09:22:12;;;;;;;4.75;2.70;;;;;;;;;;5051326;28;20220;-64
2022/08/24 09:24:57;;;;;;;2.40;1.77;;;;;;;;;;5038654;28;20527;-64
2022/08/24 09:27:28;;;;;;;3.78;2.40;;;;;;;;;;5054782;28;20212;-64
2022/08/24 09:30:03;;;;;;;8.05;2.63;;;;;;;;;;5054832;28;20607;-64
2022/08/24 09:32:37;;;;;;;6.22;2.50;;;;;;;;;;5054749;28;20212;-64
2022/08/24 09:35:07;;;;;;;6.45;2.40;;;;;;;;;;5054326;28;20212;-64
2022/08/24 09:37:37;;;;;;;8.32;1.80;;;;;;;;;;5054542;28;20243;-64
2022/08/24 09:40:16;;;;;;;4.38;1.73;;;;;;;;;;5054309;28;20472;-64
2022/08/24 09:43:00;;;;;;;2.38;1.73;;;;;;;;;;5054857;28;20212;-63
2022/08/24 09:45:42;;;;;;;2.38;1.70;;;;;;;;;;5048063;28;20213;-63
2022/08/24 09:48:18;;;;;;;2.25;2.15;;;;;;;;;;5035625;28;20278;-64
2022/08/24 09:51:12;;;;;;;1.92;1.30;;;;;;;;;;5054435;28;20216;-63
2022/08/24 09:53:59;;;;;;;3.80;1.40;;;;;;;;;;5054058;28;20410;-63
2022/08/24 09:56:44;;;;;;;2.33;1.00;;;;;;;;;;5052484;28;20711;-64
2022/08/24 09:59:18;;;;;;;1.30;1.20;;;;;;;;;;5038941;28;20562;-63
2022/08/24 10:01:53;;;;;;;0.80;0.80;;;;;;;;;;5051115;28;20212;-63
2022/08/24 10:04:25;;;;;;;3.05;0.85;;;;;;;;;;5053609;28;20291;-64
2022/08/24 10:06:58;;;;;;;1.00;1.00;;;;;;;;;;5034487;28;20534;-64
2022/08/24 10:09:39;;;;;;;2.60;1.05;;;;;;;;;;5039458;28;20225;-65
2022/08/24 10:12:12;;;;;;;1.10;1.00;;;;;;;;;;5046711;28;20279;-63
2022/08/24 10:14:47;;;;;;;1.20;1.10;;;;;;;;;;5034065;28;20407;-64
2022/08/24 10:17:17;;;;;;;0.90;0.90;;;;;;;;;;5042499;28;20258;-64
2022/08/24 10:19:59;;;;;;;1.00;1.00;;;;;;;;;;5046525;28;20447;-63
2022/08/24 10:22:33;;;;;;;1.17;1.00;;;;;;;;;;5053629;28;20217;-65
2022/08/24 10:25:17;;;;;;;1.27;0.90;;;;;;;;;;5043870;28;20452;-63
2022/08/24 10:27:49;;;;;;;1.38;0.85;;;;;;;;;;5050208;28;20279;-62
2022/08/24 10:30:27;;;;;;;0.88;0.88;;;;;;;;;;5046645;28;20216;-62
2022/08/24 10:32:56;;;;;;;1.02;0.82;;;;;;;;;;5052510;28;20212;-63
2022/08/24 10:35:26;;;;;;;1.23;1.10;;;;;;;;;;5046606;28;20213;-64
2022/08/24 10:40:59;;;;;;;1.05;1.05;;;;;;;;;;5035571;28;20280;-64
2022/08/24 10:43:38;;;;;;;1.98;1.02;;;;;;;;;;5051070;28;20212;-63
2022/08/24 10:46:15;;;;;;;0.88;0.88;;;;;;;;;;5059540;28;20565;-62
2022/08/24 10:48:53;;;;;;;0.82;0.82;;;;;;;;;;5059559;28;20228;-62
2022/08/24 10:51:28;;;;;;;1.60;1.60;;;;;;;;;;5042614;28;20201;-65
2022/08/24 10:53:57;;;;;;;1.73;1.02;;;;;;;;;;5039523;28;20212;-63
2022/08/24 10:56:29;;;;;;;0.85;0.85;;;;;;;;;;5039371;28;20528;-65
2022/08/24 10:59:02;;;;;;;1.17;1.02;;;;;;;;;;5052612;28;20280;-63
2022/08/24 11:01:30;;;;;;;1.58;1.58;;;;;;;;;;5044997;28;20213;-63
2022/08/24 11:04:02;;;;;;;0.90;0.77;;;;;;;;;;5053723;28;20224;-63
2022/08/24 11:06:30;;;;;;;0.93;0.93;;;;;;;;;;5056907;28;20232;-62
2022/08/24 11:09:00;;;;;;;0.80;0.80;;;;;;;;;;5058424;28;20233;-66
2022/08/24 11:11:28;;;;;;;1.60;1.35;;;;;;;;;;5058544;28;20217;-64
2022/08/24 11:13:57;;;;;;;0.95;0.90;;;;;;;;;;5040795;28;20217;-65
2022/08/24 11:16:25;;;;;;;2.10;1.55;;;;;;;;;;5038608;28;20213;-63
2022/08/24 11:18:53;;;;;;;1.17;1.13;;;;;;;;;;5039257;28;20516;-64
2022/08/24 11:21:30;;;;;;;1.13;0.90;;;;;;;;;;5043163;28;20451;-65
2022/08/24 11:24:00;;;;;;;0.93;0.93;;;;;;;;;;5044565;28;20212;-64
2022/08/24 11:26:26;;;;;;;0.85;0.85;;;;;;;;;;5038781;28;20271;-64
2022/08/24 11:28:57;;;;;;;0.90;0.90;;;;;;;;;;5038475;28;20742;-66
2022/08/24 11:31:28;;;;;;;0.90;0.90;;;;;;;;;;5038025;28;20276;-64
2022/08/24 11:33:59;;;;;;;1.75;0.70;;;;;;;;;;5038992;28;20528;-64
2022/08/24 11:36:27;;;;;;;2.08;0.90;;;;;;;;;;5038429;28;20348;-65
2022/08/24 11:39:09;;;;;;;0.80;0.80;;;;;;;;;;5039945;28;20394;-64
2022/08/24 11:41:41;;;;;;;0.88;0.88;;;;;;;;;;5058442;28;20208;-64
2022/08/24 11:44:11;;;;;;;1.10;1.10;;;;;;;;;;5058441;28;20216;-65
2022/08/24 11:46:42;;;;;;;1.95;0.80;;;;;;;;;;5057901;28;20212;-64
2022/08/24 11:49:14;;;;;;;1.52;0.82;;;;;;;;;;5058814;28;20563;-64
2022/08/24 11:51:46;;;;;;;0.88;0.88;;;;;;;;;;5057933;28;20562;-65
2022/08/24 11:54:23;;;;;;;0.75;0.75;;;;;;;;;;5057938;28;20216;-64
2022/08/24 11:56:51;;;;;;;0.65;0.65;;;;;;;;;;5051001;28;20512;-65
2022/08/24 11:59:21;;;;;;;0.73;0.73;;;;;;;;;;5049671;28;20213;-64
2022/08/24 12:01:49;;;;;;;0.90;0.73;;;;;;;;;;5054854;28;20528;-64
2022/08/24 12:04:22;;;;;;;0.77;0.77;;;;;;;;;;5058596;28;20444;-64
2022/08/24 12:06:55;;;;;;;2.05;0.90;;;;;;;;;;5057855;28;20232;-65
2022/08/24 12:09:30;;;;;;;4.30;1.00;;;;;;;;;;5057104;28;20715;-64
2022/08/24 12:11:59;;;;;;;2.17;0.80;;;;;;;;;;5057277;28;20249;-64
2022/08/24 12:14:27;;;;;;;1.55;0.85;;;;;;;;;;5058003;28;20212;-64
2022/08/24 12:16:57;;;;;;;0.60;0.60;;;;;;;;;;5052334;28;20217;-66
2022/08/24 12:19:26;;;;;;;1.10;1.00;;;;;;;;;;5037691;28;20254;-66
2022/08/24 12:21:54;;;;;;;0.75;0.75;;;;;;;;;;5055402;28;20562;-66
2022/08/24 12:24:24;;;;;;;1.38;0.65;;;;;;;;;;5057333;28;20253;-66
2022/08/24 12:26:55;;;;;;;2.15;0.70;;;;;;;;;;5057690;28;20212;-66
2022/08/24 12:29:24;;;;;;;0.70;0.70;;;;;;;;;;5058113;28;20252;-66
2022/08/24 12:31:52;;;;;;;0.52;0.50;;;;;;;;;;5057356;28;20208;-66
2022/08/24 12:34:22;;;;;;;5.15;0.60;;;;;;;;;;5056993;28;20216;-66
2022/08/24 12:36:53;;;;;;;0.60;0.60;;;;;;;;;;5058060;28;20220;-65
2022/08/24 12:39:22;;;;;;;5.68;0.75;;;;;;;;;;5041157;28;20216;-65
2022/08/24 12:41:54;;;;;;;2.55;0.75;;;;;;;;;;5037564;28;20205;-65
2022/08/24 12:44:24;;;;;;;2.08;0.65;;;;;;;;;;5053760;28;20276;-63
2022/08/24 12:46:52;;;;;;;0.85;0.80;;;;;;;;;;5039565;28;20213;-64
2022/08/24 12:49:22;;;;;;;0.80;0.80;;;;;;;;;;5036258;28;20650;-64
2022/08/24 12:52:00;;;;;;;1.83;0.80;;;;;;;;;;5056911;28;20262;-64
2022/08/24 12:54:35;;;;;;;0.98;0.93;;;;;;;;;;5057013;28;20212;-64
2022/08/24 12:57:08;;;;;;;0.77;0.77;;;;;;;;;;5056476;28;20529;-64
2022/08/24 12:59:38;;;;;;;1.58;0.80;;;;;;;;;;5038014;28;20273;-65
2022/08/24 13:02:05;;;;;;;1.63;0.82;;;;;;;;;;5037126;28;20247;-65
2022/08/24 13:04:34;;;;;;;1.88;0.90;;;;;;;;;;5037660;28;20213;-66
2022/08/24 13:07:04;;;;;;;0.80;0.80;;;;;;;;;;5037173;28;20525;-66
2022/08/24 13:09:32;;;;;;;0.90;0.90;;;;;;;;;;5043084;28;20554;-65
2022/08/24 13:12:00;;;;;;;2.45;1.17;;;;;;;;;;5044539;28;20213;-65
2022/08/24 13:14:27;;;;;;;1.25;0.90;;;;;;;;;;5048578;28;20218;-65
2022/08/24 13:17:11;;;;;;;2.15;0.90;;;;;;;;;;5037876;28;20535;-65
2022/08/24 13:19:39;;;;;;;1.65;0.93;;;;;;;;;;5050329;28;20447;-66
2022/08/24 13:22:24;;;;;;;1.10;0.60;;;;;;;;;;5036746;28;20220;-65
2022/08/24 13:24:58;;;;;;;0.73;0.73;;;;;;;;;;5053840;28;20213;-64
2022/08/24 13:27:49;;;;;;;0.95;0.95;;;;;;;;;;5055803;28;20212;-64
2022/08/24 13:30:21;;;;;;;2.67;1.10;;;;;;;;;;5055648;28;20224;-66
2022/08/24 13:32:55;;;;;;;0.80;0.80;;;;;;;;;;5042686;28;20205;-65
2022/08/24 13:35:30;;;;;;;0.80;0.80;;;;;;;;;;5053921;28;20261;-65
2022/08/24 13:38:11;;;;;;;1.50;0.80;;;;;;;;;;5056007;28;20527;-63
2022/08/24 13:40:46;;;;;;;0.98;0.90;;;;;;;;;;5055413;28;20207;-69
2022/08/24 13:43:14;;;;;;;0.80;0.80;;;;;;;;;;5055416;28;20212;-70
2022/08/24 13:45:45;;;;;;;1.00;1.00;;;;;;;;;;5055731;28;20460;-67
2022/08/24 13:48:18;;;;;;;0.90;0.90;;;;;;;;;;5051571;28;20541;-68
2022/08/24 13:50:50;;;;;;;1.60;1.10;;;;;;;;;;5036213;28;20229;-68
2022/08/24 13:53:33;;;;;;;3.17;1.00;;;;;;;;;;5044534;28;20578;-70
2022/08/24 13:56:11;;;;;;;2.80;1.10;;;;;;;;;;5055087;28;20221;-69
2022/08/24 13:58:40;;;;;;;2.15;1.00;;;;;;;;;;5052643;28;20436;-70
2022/08/24 14:01:19;;;;;;;1.15;1.15;;;;;;;;;;5036005;28;20205;-69
2022/08/24 14:03:58;;;;;;;4.50;1.23;;;;;;;;;;5036548;28;20213;-69
2022/08/24 14:06:30;;;;;;;1.10;1.10;;;;;;;;;;5035243;28;20229;-69
2022/08/24 14:09:02;;;;;;;1.30;1.20;;;;;;;;;;5035319;28;20220;-69
2022/08/24 14:11:39;;;;;;;0.93;0.93;;;;;;;;;;5035550;28;20213;-69
2022/08/24 14:14:07;;;;;;;1.10;1.00;;;;;;;;;;5035216;28;20444;-69
2022/08/24 14:19:39;;;;;;;1.05;1.00;;;;;;;;;;5034771;28;20211;-69
2022/08/24 14:22:14;;;;;;;0.90;0.90;;;;;;;;;;5035631;28;20217;-69
2022/08/24 14:24:43;;;;;;;1.38;1.20;;;;;;;;;;5042829;28;20226;-70
2022/08/24 14:27:11;;;;;;;1.02;0.90;;;;;;;;;;5054851;28;20220;-69
2022/08/24 14:29:40;;;;;;;1.80;0.80;;;;;;;;;;5055940;28;20573;-69
2022/08/24 14:32:27;;;;;;;1.02;1.02;;;;;;;;;;5054820;28;20213;-69
2022/08/24 14:35:00;;;;;;;1.10;1.10;;;;;;;;;;5051563;28;20219;-70
2022/08/24 14:37:30;;;;;;;1.75;1.20;;;;;;;;;;5054583;28;20441;-70
2022/08/24 14:40:02;;;;;;;1.10;1.10;;;;;;;;;;5055609;28;20204;-69
2022/08/24 14:42:36;;;;;;;1.10;1.05;;;;;;;;;;5055225;28;20216;-70
2022/08/24 14:45:04;;;;;;;1.00;1.00;;;;;;;;;;5055696;28;20254;-70
2022/08/24 14:47:34;;;;;;;1.27;1.17;;;;;;;;;;5055375;28;20213;-70
2022/08/24 14:50:10;;;;;;;3.05;1.25;;;;;;;;;;5055370;28;20217;-70
2022/08/24 14:52:42;;;;;;;1.95;0.98;;;;;;;;;;5055351;28;20305;-70
2022/08/24 14:55:12;;;;;;;1.40;0.95;;;;;;;;;;5055471;28;20212;-70
2022/08/24 14:57:47;;;;;;;1.80;1.10;;;;;;;;;;5055182;28;20220;-69
2022/08/24 15:00:14;;;;;;;1.35;1.35;;;;;;;;;;5055500;28;20406;-69
2022/08/24 15:03:01;;;;;;;2.55;1.45;;;;;;;;;;5054818;28;20208;-70
2022/08/24 15:05:36;;;;;;;6.38;1.00;;;;;;;;;;5045891;28;20231;-70
2022/08/24 15:08:04;;;;;;;1.30;1.20;;;;;;;;;;5035488;28;20216;-69
2022/08/24 15:10:33;;;;;;;2.58;1.00;;;;;;;;;;5051276;28;20239;-69
2022/08/24 15:13:01;;;;;;;1.20;1.20;;;;;;;;;;5057771;28;20505;-69